sensor_id;sensor_type;location;lat;lon;timestamp;temperature;humidity
1329;DHT22;658;48.820;9.354;2023-05-29T00:00:17;23.60;44.50
1329;DHT22;658;48.820;9.354;2023-05-29T00:04:18;23.60;44.60
1329;DHT22;658;48.820;9.354;2023-05-29T00:08:19;23.60;44.60
1329;DHT22;658;48.820;9.354;2023-05-29T00:12:19;23.60;44.60
1329;DHT22;658;48.820;9.354;2023-05-29T00:16:20;23.50;44.50
1329;DHT22;658;48.820;9.354;2023-05-29T00:20:21;23.50;44.50
1329;DHT22;658;48.820;9.354;2023-05-29T00:24:22;23.50;44.60
1329;DHT22;658;48.820;9.354;2023-05-29T00:28:22;23.50;44.50
1329;DHT22;658;48.820;9.354;2023-05-29T00:32:23;23.50;44.40
1329;DHT22;658;48.820;9.354;2023-05-29T00:36:27;23.50;44.50
1329;DHT22;658;48.820;9.354;2023-05-29T00:40:29;23.50;44.60
1329;DHT22;658;48.820;9.354;2023-05-29T00:44:30;23.50;44.40
1329;DHT22;658;48.820;9.354;2023-05-29T00:48:31;23.40;44.40
1329;DHT22;658;48.820;9.354;2023-05-29T00:52:34;23.40;44.50
1329;DHT22;658;48.820;9.354;2023-05-29T00:56:35;23.40;44.50
1329;DHT22;658;48.820;9.354;2023-05-29T01:00:36;23.40;44.50
1329;DHT22;658;48.820;9.354;2023-05-29T01:04:38;23.40;44.60
1329;DHT22;658;48.820;9.354;2023-05-29T01:08:41;23.40;44.40
1329;DHT22;658;48.820;9.354;2023-05-29T01:17:15;23.30;44.30
1329;DHT22;658;48.820;9.354;2023-05-29T01:21:37;23.30;44.40
1329;DHT22;658;48.820;9.354;2023-05-29T01:30:07;23.30;44.30
1329;DHT22;658;48.820;9.354;2023-05-29T01:34:08;23.20;44.70
1329;DHT22;658;48.820;9.354;2023-05-29T01:38:08;23.20;44.90
1329;DHT22;658;48.820;9.354;2023-05-29T01:42:12;23.20;44.80
1329;DHT22;658;48.820;9.354;2023-05-29T01:46:13;23.20;44.80
1329;DHT22;658;48.820;9.354;2023-05-29T01:50:17;23.20;44.90
1329;DHT22;658;48.820;9.354;2023-05-29T01:54:18;23.20;44.90
1329;DHT22;658;48.820;9.354;2023-05-29T01:58:21;23.20;44.90
1329;DHT22;658;48.820;9.354;2023-05-29T02:02:25;23.10;44.80
1329;DHT22;658;48.820;9.354;2023-05-29T02:06:26;23.20;44.60
1329;DHT22;658;48.820;9.354;2023-05-29T02:10:26;23.10;44.80
1329;DHT22;658;48.820;9.354;2023-05-29T02:14:29;23.20;44.80
1329;DHT22;658;48.820;9.354;2023-05-29T02:18:34;23.10;44.90
1329;DHT22;658;48.820;9.354;2023-05-29T02:22:37;23.10;44.80
1329;DHT22;658;48.820;9.354;2023-05-29T02:26:38;23.10;44.80
1329;DHT22;658;48.820;9.354;2023-05-29T02:30:39;23.10;44.80
1329;DHT22;658;48.820;9.354;2023-05-29T02:34:42;23.10;44.50
1329;DHT22;658;48.820;9.354;2023-05-29T02:38:42;23.00;44.50
1329;DHT22;658;48.820;9.354;2023-05-29T02:42:43;23.00;44.60
1329;DHT22;658;48.820;9.354;2023-05-29T02:46:46;23.00;44.60
1329;DHT22;658;48.820;9.354;2023-05-29T02:50:46;23.00;44.50
1329;DHT22;658;48.820;9.354;2023-05-29T02:54:47;23.00;44.40
1329;DHT22;658;48.820;9.354;2023-05-29T02:58:48;23.00;44.40
1329;DHT22;658;48.820;9.354;2023-05-29T03:02:48;23.00;44.40
1329;DHT22;658;48.820;9.354;2023-05-29T03:06:49;22.90;44.30
1329;DHT22;658;48.820;9.354;2023-05-29T03:10:49;23.00;44.50
1329;DHT22;658;48.820;9.354;2023-05-29T03:14:52;23.00;44.60
1329;DHT22;658;48.820;9.354;2023-05-29T03:18:52;22.90;44.50
1329;DHT22;658;48.820;9.354;2023-05-29T03:22:53;22.90;44.40
1329;DHT22;658;48.820;9.354;2023-05-29T03:26:54;22.90;44.50
1329;DHT22;658;48.820;9.354;2023-05-29T03:30:55;22.90;44.40
1329;DHT22;658;48.820;9.354;2023-05-29T03:34:55;22.90;44.50
1329;DHT22;658;48.820;9.354;2023-05-29T03:38:57;22.90;44.50
1329;DHT22;658;48.820;9.354;2023-05-29T03:42:58;22.90;44.50
1329;DHT22;658;48.820;9.354;2023-05-29T03:47:01;22.90;44.60
1329;DHT22;658;48.820;9.354;2023-05-29T03:51:01;22.90;44.50
1329;DHT22;658;48.820;9.354;2023-05-29T03:55:02;22.80;44.60
1329;DHT22;658;48.820;9.354;2023-05-29T03:59:03;22.80;44.40
1329;DHT22;658;48.820;9.354;2023-05-29T04:03:04;22.80;44.40
1329;DHT22;658;48.820;9.354;2023-05-29T04:07:05;22.80;44.60
1329;DHT22;658;48.820;9.354;2023-05-29T04:11:05;22.80;44.50
1329;DHT22;658;48.820;9.354;2023-05-29T04:15:06;22.80;44.50
1329;DHT22;658;48.820;9.354;2023-05-29T04:19:07;22.80;44.50
1329;DHT22;658;48.820;9.354;2023-05-29T04:23:08;22.80;44.70
1329;DHT22;658;48.820;9.354;2023-05-29T04:27:11;22.80;44.60
1329;DHT22;658;48.820;9.354;2023-05-29T04:31:13;22.80;44.70
1329;DHT22;658;48.820;9.354;2023-05-29T04:35:14;22.70;44.80
1329;DHT22;658;48.820;9.354;2023-05-29T04:39:15;22.70;44.70
1329;DHT22;658;48.820;9.354;2023-05-29T04:43:15;22.70;44.80
1329;DHT22;658;48.820;9.354;2023-05-29T04:47:16;22.70;44.80
1329;DHT22;658;48.820;9.354;2023-05-29T04:51:20;22.70;44.80
1329;DHT22;658;48.820;9.354;2023-05-29T04:55:21;22.70;44.90
1329;DHT22;658;48.820;9.354;2023-05-29T04:59:23;22.70;44.90
1329;DHT22;658;48.820;9.354;2023-05-29T05:03:24;22.70;45.10
1329;DHT22;658;48.820;9.354;2023-05-29T05:07:25;22.70;45.10
1329;DHT22;658;48.820;9.354;2023-05-29T05:11:26;22.70;45.10
1329;DHT22;658;48.820;9.354;2023-05-29T05:15:26;22.70;45.00
1329;DHT22;658;48.820;9.354;2023-05-29T05:19:27;22.70;45.10
1329;DHT22;658;48.820;9.354;2023-05-29T05:23:27;22.70;45.20
1329;DHT22;658;48.820;9.354;2023-05-29T05:27:32;22.70;45.30
1329;DHT22;658;48.820;9.354;2023-05-29T05:31:32;22.70;45.40
1329;DHT22;658;48.820;9.354;2023-05-29T05:35:33;22.70;45.50
1329;DHT22;658;48.820;9.354;2023-05-29T05:39:34;22.70;45.40
1329;DHT22;658;48.820;9.354;2023-05-29T05:43:36;22.70;45.50
1329;DHT22;658;48.820;9.354;2023-05-29T05:47:39;22.70;45.50
1329;DHT22;658;48.820;9.354;2023-05-29T05:51:40;22.70;45.50
1329;DHT22;658;48.820;9.354;2023-05-29T05:55:40;22.70;45.70
1329;DHT22;658;48.820;9.354;2023-05-29T05:59:41;22.70;45.70
1329;DHT22;658;48.820;9.354;2023-05-29T06:03:42;22.70;45.70
1329;DHT22;658;48.820;9.354;2023-05-29T06:07:42;22.70;45.70
1329;DHT22;658;48.820;9.354;2023-05-29T06:11:43;22.70;45.80
1329;DHT22;658;48.820;9.354;2023-05-29T06:15:44;22.70;45.80
1329;DHT22;658;48.820;9.354;2023-05-29T06:19:45;22.70;45.80
1329;DHT22;658;48.820;9.354;2023-05-29T06:23:45;22.70;45.90
1329;DHT22;658;48.820;9.354;2023-05-29T06:27:46;22.70;46.00
1329;DHT22;658;48.820;9.354;2023-05-29T06:31:46;22.70;46.10
1329;DHT22;658;48.820;9.354;2023-05-29T06:35:48;22.80;46.20
1329;DHT22;658;48.820;9.354;2023-05-29T06:39:49;22.70;46.20
1329;DHT22;658;48.820;9.354;2023-05-29T06:43:49;22.70;46.20
1329;DHT22;658;48.820;9.354;2023-05-29T06:47:51;22.70;45.80
1329;DHT22;658;48.820;9.354;2023-05-29T06:51:52;22.70;45.70
1329;DHT22;658;48.820;9.354;2023-05-29T06:55:53;22.60;45.80
1329;DHT22;658;48.820;9.354;2023-05-29T06:59:54;22.50;46.30
1329;DHT22;658;48.820;9.354;2023-05-29T07:03:54;22.40;46.50
1329;DHT22;658;48.820;9.354;2023-05-29T07:07:55;22.30;46.30
1329;DHT22;658;48.820;9.354;2023-05-29T07:11:56;22.30;46.60
1329;DHT22;658;48.820;9.354;2023-05-29T07:15:56;22.20;46.70
1329;DHT22;658;48.820;9.354;2023-05-29T07:19:57;22.10;47.10
1329;DHT22;658;48.820;9.354;2023-05-29T07:23:57;22.00;47.10
1329;DHT22;658;48.820;9.354;2023-05-29T07:27:58;22.00;47.20
1329;DHT22;658;48.820;9.354;2023-05-29T07:31:58;22.00;47.50
1329;DHT22;658;48.820;9.354;2023-05-29T07:35:59;22.00;47.60
1329;DHT22;658;48.820;9.354;2023-05-29T07:40:00;22.10;48.20
1329;DHT22;658;48.820;9.354;2023-05-29T07:44:00;22.10;47.70
1329;DHT22;658;48.820;9.354;2023-05-29T07:48:03;22.20;47.60
1329;DHT22;658;48.820;9.354;2023-05-29T07:52:04;22.30;47.40
1329;DHT22;658;48.820;9.354;2023-05-29T07:56:04;22.30;47.40
1329;DHT22;658;48.820;9.354;2023-05-29T08:00:06;22.40;47.50
1329;DHT22;658;48.820;9.354;2023-05-29T08:04:08;22.40;47.30
1329;DHT22;658;48.820;9.354;2023-05-29T08:08:08;22.40;47.90
1329;DHT22;658;48.820;9.354;2023-05-29T08:12:09;22.50;47.50
1329;DHT22;658;48.820;9.354;2023-05-29T08:16:09;22.50;47.50
1329;DHT22;658;48.820;9.354;2023-05-29T08:20:10;22.50;47.50
1329;DHT22;658;48.820;9.354;2023-05-29T08:24:11;22.50;47.40
1329;DHT22;658;48.820;9.354;2023-05-29T08:28:12;22.60;47.50
1329;DHT22;658;48.820;9.354;2023-05-29T08:32:13;22.60;47.50
1329;DHT22;658;48.820;9.354;2023-05-29T08:36:13;22.60;47.60
1329;DHT22;658;48.820;9.354;2023-05-29T08:40:15;22.60;47.50
1329;DHT22;658;48.820;9.354;2023-05-29T08:44:21;22.60;47.60
1329;DHT22;658;48.820;9.354;2023-05-29T08:48:23;22.70;47.70
1329;DHT22;658;48.820;9.354;2023-05-29T08:52:26;22.70;48.00
1329;DHT22;658;48.820;9.354;2023-05-29T08:56:29;22.70;48.00
1329;DHT22;658;48.820;9.354;2023-05-29T09:00:33;22.70;47.60
1329;DHT22;658;48.820;9.354;2023-05-29T09:04:33;22.70;47.50
1329;DHT22;658;48.820;9.354;2023-05-29T09:08:35;22.80;47.80
1329;DHT22;658;48.820;9.354;2023-05-29T09:12:36;22.80;47.50
1329;DHT22;658;48.820;9.354;2023-05-29T09:16:42;22.80;47.30
1329;DHT22;658;48.820;9.354;2023-05-29T09:20:43;22.80;48.50
1329;DHT22;658;48.820;9.354;2023-05-29T09:24:48;22.90;48.60
1329;DHT22;658;48.820;9.354;2023-05-29T09:28:51;22.90;48.40
1329;DHT22;658;48.820;9.354;2023-05-29T09:32:54;22.90;48.50
1329;DHT22;658;48.820;9.354;2023-05-29T09:37:06;22.90;48.50
1329;DHT22;658;48.820;9.354;2023-05-29T09:41:09;22.90;48.20
1329;DHT22;658;48.820;9.354;2023-05-29T09:45:10;23.00;48.00
1329;DHT22;658;48.820;9.354;2023-05-29T09:49:13;22.90;48.10
1329;DHT22;658;48.820;9.354;2023-05-29T09:53:21;23.00;47.90
1329;DHT22;658;48.820;9.354;2023-05-29T09:57:24;23.00;47.80
1329;DHT22;658;48.820;9.354;2023-05-29T10:01:25;23.00;47.90
1329;DHT22;658;48.820;9.354;2023-05-29T10:05:27;23.00;47.60
1329;DHT22;658;48.820;9.354;2023-05-29T10:09:29;23.10;47.70
1329;DHT22;658;48.820;9.354;2023-05-29T10:13:38;23.10;47.70
1329;DHT22;658;48.820;9.354;2023-05-29T10:17:42;23.10;47.40
1329;DHT22;658;48.820;9.354;2023-05-29T10:21:47;23.10;47.20
1329;DHT22;658;48.820;9.354;2023-05-29T10:25:53;23.10;47.10
1329;DHT22;658;48.820;9.354;2023-05-29T10:30:06;23.10;47.00
1329;DHT22;658;48.820;9.354;2023-05-29T10:38:30;23.10;47.30
1329;DHT22;658;48.820;9.354;2023-05-29T10:42:48;23.20;47.90
1329;DHT22;658;48.820;9.354;2023-05-29T10:50:51;23.20;46.90
1329;DHT22;658;48.820;9.354;2023-05-29T10:54:54;23.20;46.90
1329;DHT22;658;48.820;9.354;2023-05-29T10:58:57;23.20;46.60
1329;DHT22;658;48.820;9.354;2023-05-29T11:03:04;23.20;46.60
1329;DHT22;658;48.820;9.354;2023-05-29T11:07:51;23.20;46.50
1329;DHT22;658;48.820;9.354;2023-05-29T11:12:25;23.20;46.40
1329;DHT22;658;48.820;9.354;2023-05-29T11:16:37;23.20;46.40
1329;DHT22;658;48.820;9.354;2023-05-29T11:20:43;23.30;46.40
1329;DHT22;658;48.820;9.354;2023-05-29T11:24:50;23.30;46.40
1329;DHT22;658;48.820;9.354;2023-05-29T11:28:51;23.20;46.30
1329;DHT22;658;48.820;9.354;2023-05-29T11:32:55;23.30;46.30
1329;DHT22;658;48.820;9.354;2023-05-29T11:37:01;23.30;46.10
1329;DHT22;658;48.820;9.354;2023-05-29T11:41:02;23.30;46.10
1329;DHT22;658;48.820;9.354;2023-05-29T11:45:17;23.30;46.00
1329;DHT22;658;48.820;9.354;2023-05-29T11:49:28;23.30;46.20
1329;DHT22;658;48.820;9.354;2023-05-29T11:53:29;23.30;46.30
1329;DHT22;658;48.820;9.354;2023-05-29T11:57:32;23.40;46.20
1329;DHT22;658;48.820;9.354;2023-05-29T12:01:34;23.40;46.30
1329;DHT22;658;48.820;9.354;2023-05-29T12:05:47;23.40;46.20
1329;DHT22;658;48.820;9.354;2023-05-29T12:09:49;23.40;46.10
1329;DHT22;658;48.820;9.354;2023-05-29T12:13:57;23.40;46.10
1329;DHT22;658;48.820;9.354;2023-05-29T12:18:00;23.40;46.10
1329;DHT22;658;48.820;9.354;2023-05-29T12:22:01;23.40;45.80
1329;DHT22;658;48.820;9.354;2023-05-29T12:26:01;23.40;45.70
1329;DHT22;658;48.820;9.354;2023-05-29T12:30:03;23.50;45.90
1329;DHT22;658;48.820;9.354;2023-05-29T12:34:13;23.50;45.70
1329;DHT22;658;48.820;9.354;2023-05-29T12:38:14;23.50;45.50
1329;DHT22;658;48.820;9.354;2023-05-29T12:42:16;23.50;45.50
1329;DHT22;658;48.820;9.354;2023-05-29T12:46:19;23.50;45.40
1329;DHT22;658;48.820;9.354;2023-05-29T12:54:24;23.50;45.30
1329;DHT22;658;48.820;9.354;2023-05-29T12:58:25;23.50;45.30
1329;DHT22;658;48.820;9.354;2023-05-29T13:02:26;23.50;45.40
1329;DHT22;658;48.820;9.354;2023-05-29T13:06:29;23.60;45.50
1329;DHT22;658;48.820;9.354;2023-05-29T13:10:30;23.60;45.60
1329;DHT22;658;48.820;9.354;2023-05-29T13:14:33;23.60;45.80
1329;DHT22;658;48.820;9.354;2023-05-29T13:18:34;23.60;45.80
1329;DHT22;658;48.820;9.354;2023-05-29T13:22:35;23.60;45.80
1329;DHT22;658;48.820;9.354;2023-05-29T13:26:35;23.70;45.80
1329;DHT22;658;48.820;9.354;2023-05-29T13:30:36;23.70;46.00
1329;DHT22;658;48.820;9.354;2023-05-29T13:34:37;23.70;46.00
1329;DHT22;658;48.820;9.354;2023-05-29T13:38:37;23.60;45.90
1329;DHT22;658;48.820;9.354;2023-05-29T13:42:40;23.70;45.90
1329;DHT22;658;48.820;9.354;2023-05-29T13:46:43;23.70;45.90
1329;DHT22;658;48.820;9.354;2023-05-29T13:50:44;23.70;45.80
1329;DHT22;658;48.820;9.354;2023-05-29T13:54:46;23.70;45.80
1329;DHT22;658;48.820;9.354;2023-05-29T13:58:47;23.70;45.70
1329;DHT22;658;48.820;9.354;2023-05-29T14:02:48;23.70;45.60
1329;DHT22;658;48.820;9.354;2023-05-29T14:06:49;23.70;45.60
1329;DHT22;658;48.820;9.354;2023-05-29T14:10:49;23.70;45.50
1329;DHT22;658;48.820;9.354;2023-05-29T14:14:51;23.80;45.50
1329;DHT22;658;48.820;9.354;2023-05-29T14:18:51;23.80;45.60
1329;DHT22;658;48.820;9.354;2023-05-29T14:22:52;23.80;45.50
1329;DHT22;658;48.820;9.354;2023-05-29T14:26:52;23.80;45.40
1329;DHT22;658;48.820;9.354;2023-05-29T14:30:53;23.80;45.40
1329;DHT22;658;48.820;9.354;2023-05-29T14:34:54;23.80;45.30
1329;DHT22;658;48.820;9.354;2023-05-29T14:38:54;23.80;45.30
1329;DHT22;658;48.820;9.354;2023-05-29T14:42:55;23.80;45.30
1329;DHT22;658;48.820;9.354;2023-05-29T14:46:56;23.80;45.20
1329;DHT22;658;48.820;9.354;2023-05-29T14:50:56;23.80;45.20
1329;DHT22;658;48.820;9.354;2023-05-29T14:54:57;23.80;44.90
1329;DHT22;658;48.820;9.354;2023-05-29T14:58:58;23.80;44.60
1329;DHT22;658;48.820;9.354;2023-05-29T15:02:58;23.90;44.70
1329;DHT22;658;48.820;9.354;2023-05-29T15:07:02;23.80;44.70
1329;DHT22;658;48.820;9.354;2023-05-29T15:11:04;23.90;45.30
1329;DHT22;658;48.820;9.354;2023-05-29T15:15:06;23.90;45.30
1329;DHT22;658;48.820;9.354;2023-05-29T15:19:07;23.90;45.20
1329;DHT22;658;48.820;9.354;2023-05-29T15:23:07;24.00;45.20
1329;DHT22;658;48.820;9.354;2023-05-29T15:27:08;24.10;45.10
1329;DHT22;658;48.820;9.354;2023-05-29T15:31:09;24.10;45.30
1329;DHT22;658;48.820;9.354;2023-05-29T15:35:15;24.10;45.20
1329;DHT22;658;48.820;9.354;2023-05-29T15:39:16;24.20;45.10
1329;DHT22;658;48.820;9.354;2023-05-29T15:43:17;24.30;45.30
1329;DHT22;658;48.820;9.354;2023-05-29T15:47:17;24.30;45.00
1329;DHT22;658;48.820;9.354;2023-05-29T15:51:18;24.30;44.90
1329;DHT22;658;48.820;9.354;2023-05-29T15:55:21;24.30;45.00
1329;DHT22;658;48.820;9.354;2023-05-29T15:59:22;24.40;45.00
1329;DHT22;658;48.820;9.354;2023-05-29T16:03:22;24.40;45.00
1329;DHT22;658;48.820;9.354;2023-05-29T16:07:23;24.50;44.80
1329;DHT22;658;48.820;9.354;2023-05-29T16:11:24;24.50;44.80
1329;DHT22;658;48.820;9.354;2023-05-29T16:15:25;24.50;44.70
1329;DHT22;658;48.820;9.354;2023-05-29T16:19:26;24.60;44.60
1329;DHT22;658;48.820;9.354;2023-05-29T16:23:28;24.50;44.40
1329;DHT22;658;48.820;9.354;2023-05-29T16:27:28;24.50;44.30
1329;DHT22;658;48.820;9.354;2023-05-29T16:31:29;24.50;44.20
1329;DHT22;658;48.820;9.354;2023-05-29T16:35:30;24.50;44.20
1329;DHT22;658;48.820;9.354;2023-05-29T16:39:33;24.50;44.10
1329;DHT22;658;48.820;9.354;2023-05-29T16:43:36;24.50;44.10
1329;DHT22;658;48.820;9.354;2023-05-29T16:47:37;24.50;44.10
1329;DHT22;658;48.820;9.354;2023-05-29T16:51:40;24.60;45.00
1329;DHT22;658;48.820;9.354;2023-05-29T16:55:40;24.60;45.00
1329;DHT22;658;48.820;9.354;2023-05-29T16:59:41;24.70;45.50
1329;DHT22;658;48.820;9.354;2023-05-29T17:03:42;24.70;46.30
1329;DHT22;658;48.820;9.354;2023-05-29T17:07:42;24.70;46.00
1329;DHT22;658;48.820;9.354;2023-05-29T17:11:43;24.80;46.40
1329;DHT22;658;48.820;9.354;2023-05-29T17:15:44;24.80;45.90
1329;DHT22;658;48.820;9.354;2023-05-29T17:19:44;24.90;45.80
1329;DHT22;658;48.820;9.354;2023-05-29T17:23:45;24.90;45.40
1329;DHT22;658;48.820;9.354;2023-05-29T17:27:45;25.00;45.60
1329;DHT22;658;48.820;9.354;2023-05-29T17:31:46;25.00;46.10
1329;DHT22;658;48.820;9.354;2023-05-29T17:35:47;25.10;45.90
1329;DHT22;658;48.820;9.354;2023-05-29T17:39:47;25.10;46.40
1329;DHT22;658;48.820;9.354;2023-05-29T17:43:48;25.10;45.60
1329;DHT22;658;48.820;9.354;2023-05-29T17:47:49;25.10;45.10
1329;DHT22;658;48.820;9.354;2023-05-29T17:51:49;25.10;44.90
1329;DHT22;658;48.820;9.354;2023-05-29T17:55:50;25.10;45.30
1329;DHT22;658;48.820;9.354;2023-05-29T17:59:51;25.10;44.60
1329;DHT22;658;48.820;9.354;2023-05-29T18:03:51;25.00;45.10
1329;DHT22;658;48.820;9.354;2023-05-29T18:07:52;25.00;44.40
1329;DHT22;658;48.820;9.354;2023-05-29T18:11:53;25.00;44.40
1329;DHT22;658;48.820;9.354;2023-05-29T18:15:53;25.00;44.30
1329;DHT22;658;48.820;9.354;2023-05-29T18:19:54;25.00;44.30
1329;DHT22;658;48.820;9.354;2023-05-29T18:23:54;25.00;44.30
1329;DHT22;658;48.820;9.354;2023-05-29T18:27:55;25.00;44.20
1329;DHT22;658;48.820;9.354;2023-05-29T18:31:55;25.00;44.20
1329;DHT22;658;48.820;9.354;2023-05-29T18:35:56;25.00;44.10
1329;DHT22;658;48.820;9.354;2023-05-29T18:39:57;24.90;44.10
1329;DHT22;658;48.820;9.354;2023-05-29T18:43:57;24.90;44.00
1329;DHT22;658;48.820;9.354;2023-05-29T18:48:00;24.90;44.00
1329;DHT22;658;48.820;9.354;2023-05-29T18:52:01;24.90;44.00
1329;DHT22;658;48.820;9.354;2023-05-29T18:56:03;24.90;43.90
1329;DHT22;658;48.820;9.354;2023-05-29T19:00:04;24.90;44.00
1329;DHT22;658;48.820;9.354;2023-05-29T19:04:06;24.90;43.90
1329;DHT22;658;48.820;9.354;2023-05-29T19:08:08;24.90;43.90
1329;DHT22;658;48.820;9.354;2023-05-29T19:12:11;24.90;44.60
1329;DHT22;658;48.820;9.354;2023-05-29T19:16:12;24.70;45.30
1329;DHT22;658;48.820;9.354;2023-05-29T19:20:15;24.60;44.30
1329;DHT22;658;48.820;9.354;2023-05-29T19:24:18;24.50;43.80
1329;DHT22;658;48.820;9.354;2023-05-29T19:28:18;24.30;43.50
1329;DHT22;658;48.820;9.354;2023-05-29T19:32:21;24.20;43.30
1329;DHT22;658;48.820;9.354;2023-05-29T19:36:24;24.10;43.30
1329;DHT22;658;48.820;9.354;2023-05-29T19:40:24;24.00;43.30
1329;DHT22;658;48.820;9.354;2023-05-29T19:44:25;24.00;43.30
1329;DHT22;658;48.820;9.354;2023-05-29T19:48:26;24.00;43.30
1329;DHT22;658;48.820;9.354;2023-05-29T19:52:29;23.90;43.20
1329;DHT22;658;48.820;9.354;2023-05-29T19:56:31;23.80;43.20
1329;DHT22;658;48.820;9.354;2023-05-29T20:00:32;23.80;43.10
1329;DHT22;658;48.820;9.354;2023-05-29T20:04:33;23.70;43.10
1329;DHT22;658;48.820;9.354;2023-05-29T20:08:39;23.60;42.90
1329;DHT22;658;48.820;9.354;2023-05-29T20:12:40;23.60;42.90
1329;DHT22;658;48.820;9.354;2023-05-29T20:16:40;23.60;41.40
1329;DHT22;658;48.820;9.354;2023-05-29T20:20:41;23.50;40.70
1329;DHT22;658;48.820;9.354;2023-05-29T20:24:41;23.50;41.60
1329;DHT22;658;48.820;9.354;2023-05-29T20:28:42;23.50;41.90
1329;DHT22;658;48.820;9.354;2023-05-29T20:32:43;23.50;40.50
1329;DHT22;658;48.820;9.354;2023-05-29T20:36:49;23.50;40.70
1329;DHT22;658;48.820;9.354;2023-05-29T20:40:49;23.50;41.00
1329;DHT22;658;48.820;9.354;2023-05-29T20:44:52;23.50;41.40
1329;DHT22;658;48.820;9.354;2023-05-29T20:48:55;23.30;41.60
1329;DHT22;658;48.820;9.354;2023-05-29T20:52:58;23.30;41.80
1329;DHT22;658;48.820;9.354;2023-05-29T20:56:58;23.30;41.90
1329;DHT22;658;48.820;9.354;2023-05-29T21:00:59;23.30;41.90
1329;DHT22;658;48.820;9.354;2023-05-29T21:05:02;23.40;42.00
1329;DHT22;658;48.820;9.354;2023-05-29T21:09:07;23.50;42.20
1329;DHT22;658;48.820;9.354;2023-05-29T21:13:08;23.50;42.20
1329;DHT22;658;48.820;9.354;2023-05-29T21:17:08;23.50;42.30
1329;DHT22;658;48.820;9.354;2023-05-29T21:21:09;23.60;42.30
1329;DHT22;658;48.820;9.354;2023-05-29T21:25:11;23.60;42.30
1329;DHT22;658;48.820;9.354;2023-05-29T21:29:14;23.60;42.30
1329;DHT22;658;48.820;9.354;2023-05-29T21:33:15;23.60;42.30
1329;DHT22;658;48.820;9.354;2023-05-29T21:37:15;23.70;42.30
1329;DHT22;658;48.820;9.354;2023-05-29T21:41:16;23.70;42.30
1329;DHT22;658;48.820;9.354;2023-05-29T21:45:17;23.70;42.40
1329;DHT22;658;48.820;9.354;2023-05-29T21:49:18;23.70;42.40
1329;DHT22;658;48.820;9.354;2023-05-29T21:53:20;23.70;42.50
1329;DHT22;658;48.820;9.354;2023-05-29T21:57:21;23.70;42.60
1329;DHT22;658;48.820;9.354;2023-05-29T22:01:22;23.70;42.60
1329;DHT22;658;48.820;9.354;2023-05-29T22:05:25;23.80;42.70
1329;DHT22;658;48.820;9.354;2023-05-29T22:09:25;23.70;42.30
1329;DHT22;658;48.820;9.354;2023-05-29T22:13:29;23.70;42.20
1329;DHT22;658;48.820;9.354;2023-05-29T22:17:29;23.70;42.00
1329;DHT22;658;48.820;9.354;2023-05-29T22:21:31;23.70;42.00
1329;DHT22;658;48.820;9.354;2023-05-29T22:25:32;23.60;41.80
1329;DHT22;658;48.820;9.354;2023-05-29T22:29:33;23.60;41.70
1329;DHT22;658;48.820;9.354;2023-05-29T22:33:33;23.60;41.60
1329;DHT22;658;48.820;9.354;2023-05-29T22:37:35;23.60;41.70
1329;DHT22;658;48.820;9.354;2023-05-29T22:41:36;23.60;41.70
1329;DHT22;658;48.820;9.354;2023-05-29T22:45:38;23.60;41.80
1329;DHT22;658;48.820;9.354;2023-05-29T22:49:41;23.60;41.70
1329;DHT22;658;48.820;9.354;2023-05-29T22:53:44;23.60;41.60
1329;DHT22;658;48.820;9.354;2023-05-29T22:57:46;23.60;41.70
1329;DHT22;658;48.820;9.354;2023-05-29T23:01:46;23.60;41.70
1329;DHT22;658;48.820;9.354;2023-05-29T23:05:50;23.60;41.80
1329;DHT22;658;48.820;9.354;2023-05-29T23:09:56;23.60;41.90
1329;DHT22;658;48.820;9.354;2023-05-29T23:13:56;23.60;41.90
1329;DHT22;658;48.820;9.354;2023-05-29T23:18:02;23.60;41.90
1329;DHT22;658;48.820;9.354;2023-05-29T23:22:03;23.60;42.00
1329;DHT22;658;48.820;9.354;2023-05-29T23:26:06;23.60;42.10
1329;DHT22;658;48.820;9.354;2023-05-29T23:30:08;23.60;42.10
1329;DHT22;658;48.820;9.354;2023-05-29T23:34:09;23.60;42.10
1329;DHT22;658;48.820;9.354;2023-05-29T23:38:12;23.60;42.00
1329;DHT22;658;48.820;9.354;2023-05-29T23:42:15;23.60;42.10
1329;DHT22;658;48.820;9.354;2023-05-29T23:46:18;23.60;42.20
1329;DHT22;658;48.820;9.354;2023-05-29T23:50:19;23.60;42.20
1329;DHT22;658;48.820;9.354;2023-05-29T23:54:23;23.60;42.40
1329;DHT22;658;48.820;9.354;2023-05-29T23:58:24;23.60;42.30
